Aviation Digital Data Service (ADDS)

Output produced by METARs form (2117 UTC 06 December 2019)
found at http://www.aviationweather.gov/metar/data/
 
Forecast for: RKTU (JONGJU (KAFB-AR , KR)
Text: TAF RKTU 061700Z 0618/0724 30006KT 9999 SCT030 TNM10/0621Z TX03/0706Z
Forecast period: 1800 to 2100 UTC 06 December 2019
Forecast type: FROM: standard forecast or significant change
Winds: from the WNW (300 degrees) at 7 MPH (6 knots; 3.1 m/s)
Visibility: 6 or more miles 10+ km)
Ceiling: at least 12,000 feet AGL
Clouds: scattered clouds at 3000 feet AGL
Weather: no significant weather forecast for this period
Text: BECMG 0621/0622 BKN030
Forecast period: 2100 UTC 06 December 2019 to 0800 UTC 07 December 2019
Forecast type: BECOMING: Conditions expected to become as follows by 2200 UTC 06 December 2019
Winds: from the WNW (300 degrees) at 7 MPH (6 knots; 3.1 m/s)
Visibility: 6 or more miles 10+ km)
Ceiling: 3000 feet AGL
Clouds: broken clouds at 3000 feet AGL
Weather: no significant weather forecast for this period
Text: BECMG 0708/0709 SCT030
Forecast period: 0800 UTC 07 December 2019 to 0000 UTC 08 December 2019
Forecast type: BECOMING: Conditions expected to become as follows by 0900 UTC 07 December 2019
Winds: from the WNW (300 degrees) at 7 MPH (6 knots; 3.1 m/s)
Visibility: 6 or more miles 10+ km)
Ceiling: at least 12,000 feet AGL
Clouds: scattered clouds at 3000 feet AGL
Weather: no significant weather forecast for this period